createdAt,value
2023-05-06T00:01:20.932Z,46.88
2023-05-06T00:03:48.231Z,47.18
2023-05-06T00:06:15.184Z,46.66
2023-05-06T00:08:41.926Z,46.79
2023-05-06T00:11:08.712Z,47.57
2023-05-06T00:13:35.477Z,47.19
2023-05-06T00:16:02.270Z,47.18
2023-05-06T00:18:28.994Z,47.19
2023-05-06T00:20:56.186Z,46.96
2023-05-06T00:23:22.952Z,47.00
2023-05-06T00:25:49.647Z,47.21
2023-05-06T00:28:16.506Z,47.13
2023-05-06T00:30:43.234Z,47.68
2023-05-06T00:33:10.017Z,47.63
2023-05-06T00:35:36.955Z,47.54
2023-05-06T00:38:11.769Z,48.08
2023-05-06T00:40:39.727Z,48.03
2023-05-06T00:43:06.472Z,47.88
2023-05-06T00:45:33.528Z,48.26
2023-05-06T00:48:00.878Z,48.35
2023-05-06T00:50:30.132Z,48.31
2023-05-06T00:52:58.903Z,48.30
2023-05-06T00:55:26.702Z,48.50
2023-05-06T00:57:54.584Z,48.43
2023-05-06T01:00:21.608Z,48.57
2023-05-06T01:02:49.362Z,48.88
2023-05-06T01:05:19.266Z,49.32
2023-05-06T01:08:04.348Z,49.84
2023-05-06T01:10:56.113Z,48.81
2023-05-06T01:13:42.884Z,48.63
2023-05-06T01:16:12.140Z,48.80
2023-05-06T01:18:39.168Z,48.71
2023-05-06T01:21:07.945Z,48.91
2023-05-06T01:23:58.189Z,49.53
2023-05-06T01:26:25.883Z,49.90
2023-05-06T01:28:53.562Z,50.11
2023-05-06T01:31:30.540Z,50.65
2023-05-06T01:34:14.386Z,50.08
2023-05-06T01:36:56.055Z,50.62
2023-05-06T01:39:42.584Z,50.82
2023-05-06T01:42:11.069Z,49.88
2023-05-06T01:44:39.862Z,49.79
2023-05-06T01:47:09.028Z,50.07
2023-05-06T01:49:36.349Z,50.71
2023-05-06T01:52:03.146Z,50.57
2023-05-06T01:54:31.515Z,49.87
2023-05-06T01:56:58.265Z,50.97
2023-05-06T01:59:24.965Z,50.22
2023-05-06T02:01:51.799Z,49.91
2023-05-06T02:04:18.513Z,50.79
2023-05-06T02:06:45.191Z,50.38
2023-05-06T02:09:11.976Z,50.34
2023-05-06T02:11:38.910Z,50.50
2023-05-06T02:14:05.845Z,50.81
2023-05-06T02:16:32.639Z,50.86
2023-05-06T02:19:01.865Z,51.34
2023-05-06T02:21:28.634Z,51.10
2023-05-06T02:23:55.333Z,50.98
2023-05-06T02:26:22.063Z,50.94
2023-05-06T02:28:48.868Z,51.81
2023-05-06T02:31:16.284Z,51.31
2023-05-06T02:33:46.339Z,51.80
2023-05-06T02:36:14.320Z,51.60
2023-05-06T02:38:41.258Z,51.57
2023-05-06T02:41:07.939Z,51.99
2023-05-06T02:43:34.990Z,51.65
2023-05-06T02:46:01.753Z,51.37
2023-05-06T02:48:28.514Z,51.88
2023-05-06T02:50:55.199Z,51.84
2023-05-06T02:53:22.148Z,51.88
2023-05-06T02:55:48.851Z,51.90
2023-05-06T02:58:15.793Z,51.92
2023-05-06T03:00:43.927Z,52.28
2023-05-06T03:03:10.616Z,51.59
2023-05-06T03:05:37.339Z,52.21
2023-05-06T03:08:04.253Z,52.00
2023-05-06T03:10:31.140Z,52.31
2023-05-06T03:12:57.861Z,52.01
2023-05-06T03:15:24.608Z,52.58
2023-05-06T03:17:51.355Z,52.76
2023-05-06T03:20:18.077Z,52.35
2023-05-06T03:22:44.844Z,52.42
2023-05-06T03:25:11.757Z,52.14
2023-05-06T03:27:38.626Z,52.21
2023-05-06T03:30:06.672Z,52.46
2023-05-06T03:32:33.580Z,52.36
2023-05-06T03:35:03.008Z,52.44
2023-05-06T03:37:30.818Z,52.82
2023-05-06T03:39:57.526Z,52.41
2023-05-06T03:42:24.510Z,51.93
2023-05-06T03:44:51.554Z,52.15
2023-05-06T03:47:18.389Z,52.54
2023-05-06T03:49:45.061Z,52.00
2023-05-06T03:52:11.869Z,52.03
2023-05-06T03:54:38.617Z,52.41
2023-05-06T03:57:05.493Z,52.34
2023-05-06T03:59:32.248Z,52.35
2023-05-06T04:01:58.988Z,52.14
2023-05-06T04:04:27.460Z,52.22
2023-05-06T04:06:54.316Z,52.06
2023-05-06T04:09:21.034Z,52.32
2023-05-06T04:11:47.935Z,52.04
2023-05-06T04:14:14.669Z,52.22
2023-05-06T04:16:41.464Z,52.11
2023-05-06T04:19:09.404Z,52.38
2023-05-06T04:21:36.120Z,52.34
2023-05-06T04:24:03.027Z,52.11
2023-05-06T04:26:29.742Z,52.32
2023-05-06T04:28:58.796Z,51.88
2023-05-06T04:31:25.631Z,51.72
2023-05-06T04:33:54.089Z,51.63
2023-05-06T04:36:22.054Z,51.91
2023-05-06T04:38:48.779Z,51.94
2023-05-06T04:41:16.352Z,51.68
2023-05-06T04:43:43.404Z,51.16
2023-05-06T04:46:10.745Z,51.18
2023-05-06T04:48:38.009Z,51.00
2023-05-06T04:51:05.499Z,50.69
2023-05-06T04:53:32.536Z,50.39
2023-05-06T04:55:59.248Z,50.37
2023-05-06T04:58:26.247Z,50.54
2023-05-06T05:00:52.982Z,50.79
2023-05-06T05:03:19.845Z,50.64
2023-05-06T05:05:46.871Z,50.22
2023-05-06T05:08:13.587Z,50.30
2023-05-06T05:10:44.416Z,50.04
2023-05-06T05:13:11.372Z,50.18
2023-05-06T05:15:39.344Z,50.07
2023-05-06T05:18:06.401Z,49.71
2023-05-06T05:20:33.432Z,50.06
2023-05-06T05:23:00.378Z,49.97
2023-05-06T05:25:27.068Z,50.04
2023-05-06T05:27:54.163Z,50.03
2023-05-06T05:30:21.459Z,49.89
2023-05-06T05:32:48.261Z,49.70
2023-05-06T05:35:16.289Z,49.47
2023-05-06T05:37:42.968Z,49.24
2023-05-06T05:40:10.085Z,49.58
2023-05-06T05:42:36.847Z,49.33
2023-05-06T05:45:03.730Z,48.91
2023-05-06T05:47:31.278Z,48.69
2023-05-06T05:49:59.999Z,47.79
2023-05-06T05:52:27.435Z,47.50
2023-05-06T05:54:54.094Z,47.98
2023-05-06T05:57:21.408Z,47.25
2023-05-06T05:59:48.170Z,47.43
2023-05-06T06:02:15.905Z,47.21
2023-05-06T06:04:42.728Z,46.79
2023-05-06T06:07:09.897Z,46.61
2023-05-06T06:09:36.940Z,46.71
2023-05-06T06:12:04.174Z,46.46
2023-05-06T06:14:32.098Z,46.35
2023-05-06T06:16:59.282Z,46.09
2023-05-06T06:19:29.459Z,46.01
2023-05-06T06:21:57.378Z,45.26
2023-05-06T06:24:25.071Z,45.13
2023-05-06T06:26:51.830Z,45.23
2023-05-06T06:29:18.556Z,45.17
2023-05-06T06:31:45.634Z,45.18
2023-05-06T06:34:12.913Z,45.27
2023-05-06T06:36:45.205Z,45.17
2023-05-06T06:39:12.928Z,44.99
2023-05-06T06:41:42.150Z,45.02
2023-05-06T06:44:08.941Z,44.89
2023-05-06T06:46:36.065Z,44.58
2023-05-06T06:49:02.886Z,44.08
2023-05-06T06:51:29.830Z,43.82
2023-05-06T06:53:57.236Z,43.26
2023-05-06T06:56:24.006Z,43.43
2023-05-06T06:58:53.107Z,43.52
2023-05-06T07:01:20.336Z,42.72
2023-05-06T07:03:47.093Z,42.74
2023-05-06T07:06:13.849Z,43.33
2023-05-06T07:08:41.025Z,43.40
2023-05-06T07:11:07.735Z,43.31
2023-05-06T07:13:35.300Z,43.64
2023-05-06T07:16:02.390Z,43.41
2023-05-06T07:18:29.078Z,43.44
2023-05-06T07:20:55.966Z,43.48
2023-05-06T07:23:24.010Z,43.81
2023-05-06T07:25:50.768Z,43.50
2023-05-06T07:28:17.569Z,43.81
2023-05-06T07:30:45.415Z,43.56
2023-05-06T07:33:13.466Z,43.78
2023-05-06T07:35:40.497Z,43.68
2023-05-06T07:38:09.561Z,43.71
2023-05-06T07:40:36.296Z,43.82
2023-05-06T07:43:03.810Z,43.55
2023-05-06T07:45:30.485Z,43.35
2023-05-06T07:47:57.591Z,43.28
2023-05-06T07:50:25.465Z,43.12
2023-05-06T07:52:52.552Z,43.07
2023-05-06T07:55:19.280Z,42.74
2023-05-06T07:57:46.476Z,42.60
2023-05-06T08:00:13.752Z,42.38
2023-05-06T08:02:44.769Z,42.52
2023-05-06T08:05:12.732Z,42.41
2023-05-06T08:07:41.528Z,42.63
2023-05-06T08:10:09.923Z,42.45
2023-05-06T08:12:37.573Z,42.76
2023-05-06T08:15:05.009Z,42.93
2023-05-06T08:17:31.886Z,43.12
2023-05-06T08:20:02.055Z,43.31
2023-05-06T08:22:28.891Z,43.30
2023-05-06T08:24:56.369Z,43.53
2023-05-06T08:27:23.353Z,43.56
2023-05-06T08:29:50.359Z,43.64
2023-05-06T08:32:17.605Z,43.49
2023-05-06T08:34:44.328Z,43.68
2023-05-06T08:37:11.439Z,43.78
2023-05-06T08:39:38.821Z,43.70
2023-05-06T08:42:10.596Z,43.76
2023-05-06T08:44:38.379Z,43.70
2023-05-06T08:47:05.579Z,43.81
2023-05-06T08:49:32.307Z,43.88
2023-05-06T08:51:59.663Z,43.62
2023-05-06T08:54:27.870Z,43.85
2023-05-06T08:56:57.711Z,44.05
2023-05-06T08:59:25.086Z,43.82
2023-05-06T09:01:54.502Z,43.98
2023-05-06T09:04:21.512Z,43.83
2023-05-06T09:06:49.560Z,43.99
2023-05-06T09:09:16.568Z,43.97
2023-05-06T09:11:43.248Z,43.97
2023-05-06T09:14:14.867Z,44.06
2023-05-06T09:16:50.095Z,44.21
2023-05-06T09:19:18.527Z,44.19
2023-05-06T09:21:49.065Z,44.40
2023-05-06T09:24:17.379Z,44.55
2023-05-06T09:26:46.663Z,44.81
2023-05-06T09:29:13.575Z,44.34
2023-05-06T09:31:42.733Z,44.54
2023-05-06T09:34:09.928Z,44.60
2023-05-06T09:36:37.060Z,44.76
2023-05-06T09:39:05.030Z,44.81
2023-05-06T09:41:32.576Z,45.00
2023-05-06T09:44:00.432Z,45.42
2023-05-06T09:46:28.323Z,45.92
2023-05-06T09:48:58.774Z,46.09
2023-05-06T09:51:27.992Z,46.90
2023-05-06T09:53:56.988Z,47.58
2023-05-06T09:56:25.226Z,47.99
2023-05-06T09:58:52.607Z,48.44
2023-05-06T10:01:32.563Z,48.94
2023-05-06T10:04:06.137Z,49.70
2023-05-06T10:06:35.701Z,50.27
2023-05-06T10:09:06.385Z,50.69
2023-05-06T10:11:33.523Z,50.91
2023-05-06T10:14:02.030Z,51.93
2023-05-06T10:16:30.287Z,52.03
2023-05-06T10:18:58.527Z,52.53
2023-05-06T10:21:27.975Z,52.85
2023-05-06T10:24:10.059Z,53.65
2023-05-06T10:26:38.294Z,53.61
2023-05-06T10:29:10.083Z,54.38
2023-05-06T10:31:48.406Z,55.97
2023-05-06T10:34:16.569Z,55.39
2023-05-06T10:36:45.210Z,55.96
2023-05-06T10:39:14.482Z,56.96
2023-05-06T10:41:41.770Z,56.69
2023-05-06T10:44:10.279Z,57.55
2023-05-06T10:47:00.784Z,58.09
2023-05-06T10:49:27.953Z,57.52
2023-05-06T10:52:14.663Z,58.95
2023-05-06T10:54:51.682Z,59.61
2023-05-06T10:57:25.736Z,59.44
2023-05-06T10:59:54.979Z,59.62
2023-05-06T11:02:24.494Z,61.80
2023-05-06T11:04:53.604Z,61.40
2023-05-06T11:07:24.303Z,61.77
2023-05-06T11:10:04.749Z,65.30
2023-05-06T11:12:49.547Z,66.04
2023-05-06T11:15:44.125Z,65.04
2023-05-06T11:18:34.556Z,66.04
2023-05-06T11:21:02.662Z,64.44
2023-05-06T11:23:52.259Z,64.83
2023-05-06T11:26:19.099Z,64.49
2023-05-06T11:28:48.922Z,64.48
2023-05-06T11:31:17.130Z,65.06
2023-05-06T11:33:49.334Z,64.11
2023-05-06T11:36:17.906Z,63.64
2023-05-06T11:38:56.502Z,64.12
2023-05-06T11:41:23.955Z,63.88
2023-05-06T11:43:52.872Z,63.65
2023-05-06T11:46:22.631Z,64.00
2023-05-06T11:48:52.725Z,64.79
2023-05-06T11:51:23.448Z,64.23
2023-05-06T11:53:50.656Z,64.08
2023-05-06T11:56:17.330Z,64.24
2023-05-06T11:58:44.262Z,64.77
2023-05-06T12:01:13.271Z,64.39
2023-05-06T12:03:40.165Z,64.51
2023-05-06T12:06:07.100Z,64.58
2023-05-06T12:08:36.100Z,64.73
2023-05-06T12:11:10.048Z,64.81
2023-05-06T12:13:37.912Z,64.65
2023-05-06T12:16:07.130Z,64.70
2023-05-06T12:18:34.220Z,64.77
2023-05-06T12:21:04.250Z,64.66
2023-05-06T12:23:31.633Z,64.68
2023-05-06T12:26:03.014Z,65.01
2023-05-06T12:28:31.551Z,64.97
2023-05-06T12:30:58.398Z,65.06
2023-05-06T12:33:25.135Z,65.16
2023-05-06T12:35:52.780Z,65.31
2023-05-06T12:38:20.904Z,65.43
2023-05-06T12:40:54.945Z,65.33
2023-05-06T12:43:31.788Z,65.46
2023-05-06T12:46:06.966Z,65.37
2023-05-06T12:48:33.918Z,65.31
2023-05-06T12:51:01.350Z,65.49
2023-05-06T12:53:33.260Z,65.31
2023-05-06T12:56:00.057Z,65.34
2023-05-06T12:58:26.824Z,65.42
2023-05-06T13:00:53.577Z,65.31
2023-05-06T13:03:20.600Z,65.21
2023-05-06T13:05:50.225Z,65.22
2023-05-06T13:08:17.113Z,65.35
2023-05-06T13:10:43.791Z,65.32
2023-05-06T13:13:11.157Z,65.24
2023-05-06T13:15:37.915Z,65.19
2023-05-06T13:18:05.271Z,65.19
2023-05-06T13:20:32.678Z,65.16
2023-05-06T13:23:00.384Z,65.00
2023-05-06T13:25:27.309Z,64.99
2023-05-06T13:27:56.792Z,64.78
2023-05-06T13:30:23.556Z,64.89
2023-05-06T13:32:50.298Z,64.54
2023-05-06T13:35:17.119Z,64.71
2023-05-06T13:37:43.800Z,64.41
2023-05-06T13:40:11.007Z,64.27
2023-05-06T13:42:38.894Z,63.80
2023-05-06T13:45:06.376Z,63.47
2023-05-06T13:47:34.027Z,63.19
2023-05-06T13:50:01.078Z,62.69
2023-05-06T13:52:28.066Z,62.37
2023-05-06T13:54:54.738Z,62.44
2023-05-06T13:57:21.496Z,62.19
2023-05-06T13:59:49.203Z,61.94
2023-05-06T14:02:17.048Z,61.57
2023-05-06T14:07:11.299Z,60.96
2023-05-06T14:09:37.967Z,60.81
2023-05-06T14:12:04.896Z,60.38
2023-05-06T14:14:31.745Z,60.15
2023-05-06T14:16:58.436Z,60.00
2023-05-06T14:19:25.810Z,59.60
2023-05-06T14:21:52.699Z,59.66
2023-05-06T14:24:19.449Z,59.33
2023-05-06T14:26:46.245Z,59.24
2023-05-06T14:29:13.035Z,59.48
2023-05-06T14:31:39.762Z,59.30
2023-05-06T14:34:06.598Z,59.00
2023-05-06T14:36:33.364Z,58.88
2023-05-06T14:39:00.056Z,58.60
2023-05-06T14:41:28.222Z,58.22
2023-05-06T14:43:55.336Z,58.10
2023-05-06T14:46:22.211Z,57.96
2023-05-06T14:48:48.943Z,57.89
2023-05-06T14:51:15.670Z,57.81
2023-05-06T14:53:42.497Z,57.63
2023-05-06T14:56:12.130Z,57.39
2023-05-06T14:58:41.881Z,57.10
2023-05-06T15:01:08.561Z,56.75
2023-05-06T15:03:36.378Z,56.99
2023-05-06T15:06:04.259Z,56.98
2023-05-06T15:08:31.197Z,56.89
2023-05-06T15:10:57.901Z,56.67
2023-05-06T15:13:24.692Z,56.55
2023-05-06T15:15:52.245Z,56.22
2023-05-06T15:18:19.051Z,56.09
2023-05-06T15:20:45.886Z,55.96
2023-05-06T15:23:12.868Z,55.89
2023-05-06T15:25:42.305Z,55.83
2023-05-06T15:28:09.284Z,55.65
2023-05-06T15:30:38.213Z,55.78
2023-05-06T15:33:09.116Z,55.81
2023-05-06T15:35:36.097Z,56.15
2023-05-06T15:38:04.042Z,56.18
2023-05-06T15:40:31.253Z,56.36
2023-05-06T15:42:59.481Z,56.25
2023-05-06T15:45:26.353Z,56.58
2023-05-06T15:47:55.639Z,56.50
2023-05-06T15:50:32.788Z,56.52
2023-05-06T15:53:01.305Z,56.50
2023-05-06T15:55:28.500Z,56.44
2023-05-06T15:57:56.013Z,56.44
2023-05-06T16:00:23.355Z,56.47
2023-05-06T16:02:51.359Z,56.32
2023-05-06T16:05:18.272Z,56.54
2023-05-06T16:07:44.978Z,56.58
2023-05-06T16:10:12.850Z,56.17
2023-05-06T16:12:39.774Z,55.85
2023-05-06T16:15:08.127Z,55.92
2023-05-06T16:17:38.157Z,55.76
2023-05-06T16:20:05.960Z,55.82
2023-05-06T16:22:32.713Z,55.99
2023-05-06T16:25:01.254Z,55.90
2023-05-06T16:27:29.230Z,55.90
2023-05-06T16:29:56.172Z,55.87
2023-05-06T16:32:23.675Z,55.70
2023-05-06T16:34:50.565Z,55.75
2023-05-06T16:37:17.261Z,55.84
2023-05-06T16:39:43.987Z,56.07
2023-05-06T16:42:10.710Z,56.06
2023-05-06T16:44:39.731Z,55.89
2023-05-06T16:47:06.921Z,56.08
2023-05-06T16:49:33.977Z,56.20
2023-05-06T16:52:00.910Z,56.15
2023-05-06T16:54:29.041Z,56.08
2023-05-06T16:56:56.241Z,56.14
2023-05-06T16:59:23.102Z,56.34
2023-05-06T17:01:51.627Z,56.58
2023-05-06T17:04:18.692Z,56.39
2023-05-06T17:06:45.450Z,56.68
2023-05-06T17:09:12.322Z,56.63
2023-05-06T17:11:39.069Z,56.78
2023-05-06T17:14:05.783Z,56.99
2023-05-06T17:16:32.822Z,57.05
2023-05-06T17:18:59.595Z,57.07
2023-05-06T17:21:28.273Z,57.57
2023-05-06T17:23:55.086Z,57.31
2023-05-06T17:26:22.493Z,57.51
2023-05-06T17:28:51.272Z,57.58
2023-05-06T17:31:18.777Z,57.48
2023-05-06T17:33:46.015Z,57.62
2023-05-06T17:36:14.227Z,57.58
2023-05-06T17:38:41.055Z,57.75
2023-05-06T17:41:07.799Z,57.75
2023-05-06T17:43:35.054Z,57.42
2023-05-06T17:46:01.891Z,57.94
2023-05-06T17:48:28.939Z,58.21
2023-05-06T17:51:00.999Z,58.31
2023-05-06T17:53:28.096Z,58.25
2023-05-06T17:55:55.249Z,58.29
2023-05-06T17:58:22.338Z,58.48
2023-05-06T18:00:49.035Z,58.69
2023-05-06T18:03:15.807Z,58.87
2023-05-06T18:05:42.540Z,58.83
2023-05-06T18:08:09.687Z,59.11
2023-05-06T18:10:38.111Z,59.86
2023-05-06T18:13:06.493Z,59.67
2023-05-06T18:15:33.292Z,59.93
2023-05-06T18:18:00.165Z,60.07
2023-05-06T18:20:27.341Z,60.30
2023-05-06T18:22:55.204Z,60.41
2023-05-06T18:25:22.428Z,60.64
2023-05-06T18:27:49.512Z,60.73
2023-05-06T18:30:17.931Z,61.03
2023-05-06T18:32:44.818Z,60.97
2023-05-06T18:35:11.862Z,61.18
2023-05-06T18:37:40.804Z,61.20
2023-05-06T18:40:09.279Z,61.09
2023-05-06T18:42:36.159Z,60.92
2023-05-06T18:45:04.966Z,61.21
2023-05-06T18:47:32.567Z,61.21
2023-05-06T18:50:00.923Z,61.07
2023-05-06T18:52:27.688Z,61.60
2023-05-06T18:54:54.430Z,61.83
2023-05-06T18:57:21.239Z,61.91
2023-05-06T18:59:47.905Z,62.11
2023-05-06T19:02:15.199Z,62.33
2023-05-06T19:04:42.635Z,62.34
2023-05-06T19:07:10.367Z,62.60
2023-05-06T19:09:37.423Z,62.48
2023-05-06T19:12:04.466Z,62.57
2023-05-06T19:14:37.934Z,62.63
2023-05-06T19:17:04.969Z,62.70
2023-05-06T19:19:32.069Z,62.88
2023-05-06T19:21:59.869Z,63.07
2023-05-06T19:24:27.440Z,62.91
2023-05-06T19:26:54.131Z,63.00
2023-05-06T19:29:21.058Z,63.16
2023-05-06T19:31:47.933Z,63.12
2023-05-06T19:34:15.127Z,63.01
2023-05-06T19:36:41.915Z,63.18
2023-05-06T19:39:09.295Z,63.12
2023-05-06T19:41:37.506Z,62.95
2023-05-06T19:44:04.373Z,63.05
2023-05-06T19:46:31.107Z,62.94
2023-05-06T19:48:58.599Z,62.94
2023-05-06T19:51:25.679Z,62.88
2023-05-06T19:53:52.471Z,62.93
2023-05-06T19:56:20.320Z,62.94
2023-05-06T19:58:47.080Z,62.92
2023-05-06T20:01:13.836Z,62.72
2023-05-06T20:03:40.854Z,62.61
2023-05-06T20:06:07.755Z,62.66
2023-05-06T20:08:35.536Z,62.44
2023-05-06T20:11:02.511Z,62.44
2023-05-06T20:13:32.666Z,62.27
2023-05-06T20:15:59.495Z,62.22
2023-05-06T20:18:26.221Z,62.22
2023-05-06T20:20:52.972Z,62.23
2023-05-06T20:23:19.698Z,62.17
2023-05-06T20:25:46.439Z,62.21
2023-05-06T20:28:13.166Z,62.14
2023-05-06T20:30:40.117Z,62.45
2023-05-06T20:33:08.031Z,62.33
2023-05-06T20:35:38.442Z,62.18
2023-05-06T20:38:06.202Z,62.25
2023-05-06T20:40:35.843Z,62.30
2023-05-06T20:43:03.147Z,62.28
2023-05-06T20:45:31.239Z,62.35
2023-05-06T20:47:59.309Z,62.23
2023-05-06T20:50:26.190Z,62.42
2023-05-06T20:52:53.165Z,62.17
2023-05-06T20:55:23.703Z,62.38
2023-05-06T20:57:51.612Z,62.26
2023-05-06T21:00:20.285Z,62.39
2023-05-06T21:02:47.087Z,62.13
2023-05-06T21:05:15.098Z,62.24
2023-05-06T21:07:41.841Z,61.99
2023-05-06T21:10:11.291Z,62.18
2023-05-06T21:12:39.285Z,62.15
2023-05-06T21:15:06.548Z,61.95
2023-05-06T21:17:33.994Z,62.06
2023-05-06T21:20:00.869Z,61.96
2023-05-06T21:22:27.556Z,61.99
2023-05-06T21:24:56.017Z,61.98
2023-05-06T21:27:22.768Z,61.86
2023-05-06T21:29:50.391Z,61.92
2023-05-06T21:32:17.752Z,61.97
2023-05-06T21:34:44.490Z,62.01
2023-05-06T21:37:11.716Z,61.95
2023-05-06T21:39:38.429Z,61.95
2023-05-06T21:42:05.141Z,61.86
2023-05-06T21:44:32.727Z,62.01
2023-05-06T21:47:00.314Z,61.69
2023-05-06T21:49:26.993Z,61.97
2023-05-06T21:51:53.710Z,61.86
2023-05-06T21:54:21.178Z,61.78
2023-05-06T21:56:49.714Z,61.94
2023-05-06T21:59:16.387Z,61.81
2023-05-06T22:01:43.673Z,61.82
2023-05-06T22:04:13.066Z,61.87
2023-05-06T22:06:40.280Z,62.22
2023-05-06T22:09:09.604Z,61.92
2023-05-06T22:11:39.806Z,61.93
2023-05-06T22:14:06.910Z,62.11
2023-05-06T22:16:41.641Z,62.02
2023-05-06T22:19:08.828Z,62.02
2023-05-06T22:21:35.573Z,62.04
2023-05-06T22:24:03.047Z,62.01
2023-05-06T22:26:33.091Z,62.00
2023-05-06T22:28:59.945Z,62.00
2023-05-06T22:31:27.181Z,62.07
2023-05-06T22:33:58.089Z,62.15
2023-05-06T22:36:29.414Z,61.89
2023-05-06T22:38:56.395Z,61.97
2023-05-06T22:41:23.181Z,61.89
2023-05-06T22:43:49.949Z,61.80
2023-05-06T22:46:16.800Z,61.63
2023-05-06T22:48:44.779Z,61.66
2023-05-06T22:51:12.379Z,61.57
2023-05-06T22:53:39.113Z,61.62
2023-05-06T22:56:06.301Z,61.45
2023-05-06T22:58:36.141Z,61.64
2023-05-06T23:01:04.438Z,61.43
2023-05-06T23:03:32.569Z,61.62
2023-05-06T23:06:00.654Z,61.49
2023-05-06T23:08:27.334Z,61.55
2023-05-06T23:10:54.248Z,61.56
2023-05-06T23:13:21.202Z,61.78
2023-05-06T23:15:48.045Z,61.71
2023-05-06T23:18:14.893Z,61.68
2023-05-06T23:20:42.313Z,61.97
2023-05-06T23:23:12.122Z,61.96
2023-05-06T23:25:38.833Z,62.01
2023-05-06T23:28:05.688Z,61.96
2023-05-06T23:30:32.471Z,61.98
2023-05-06T23:32:59.893Z,61.98
2023-05-06T23:35:26.858Z,61.82
2023-05-06T23:37:54.815Z,61.87
2023-05-06T23:40:21.652Z,61.82
2023-05-06T23:42:48.343Z,61.90
2023-05-06T23:45:15.083Z,61.85
2023-05-06T23:47:42.244Z,62.26
2023-05-06T23:50:09.480Z,62.20
2023-05-06T23:52:40.471Z,62.19
2023-05-06T23:55:07.658Z,62.04
2023-05-06T23:57:34.811Z,62.03
